sensor_id;sensor_type;location;lat;lon;timestamp;P1;durP1;ratioP1;P2;durP2;ratioP2
25073;SDS011;13066;52.042;5.648;2023-06-05T00:01:55;11.23;;;3.90;;
25073;SDS011;13066;52.042;5.648;2023-06-05T00:04:23;8.25;;;4.13;;
25073;SDS011;13066;52.042;5.648;2023-06-05T00:06:51;8.20;;;3.88;;
25073;SDS011;13066;52.042;5.648;2023-06-05T00:09:20;9.45;;;3.78;;
25073;SDS011;13066;52.042;5.648;2023-06-05T00:11:49;7.50;;;3.90;;
25073;SDS011;13066;52.042;5.648;2023-06-05T00:14:17;5.93;;;4.00;;
25073;SDS011;13066;52.042;5.648;2023-06-05T00:16:45;7.40;;;3.47;;
25073;SDS011;13066;52.042;5.648;2023-06-05T00:19:13;8.20;;;4.05;;
25073;SDS011;13066;52.042;5.648;2023-06-05T00:21:41;11.07;;;4.40;;
25073;SDS011;13066;52.042;5.648;2023-06-05T00:24:09;6.50;;;3.85;;
25073;SDS011;13066;52.042;5.648;2023-06-05T00:26:38;8.43;;;3.78;;
25073;SDS011;13066;52.042;5.648;2023-06-05T00:29:06;7.70;;;4.03;;
25073;SDS011;13066;52.042;5.648;2023-06-05T00:31:34;15.40;;;4.65;;
25073;SDS011;13066;52.042;5.648;2023-06-05T00:34:02;6.95;;;4.20;;
25073;SDS011;13066;52.042;5.648;2023-06-05T00:36:31;8.77;;;4.20;;
25073;SDS011;13066;52.042;5.648;2023-06-05T00:38:59;10.48;;;4.45;;
25073;SDS011;13066;52.042;5.648;2023-06-05T00:41:27;6.60;;;4.15;;
25073;SDS011;13066;52.042;5.648;2023-06-05T00:43:56;9.65;;;4.65;;
25073;SDS011;13066;52.042;5.648;2023-06-05T00:46:24;11.30;;;4.75;;
25073;SDS011;13066;52.042;5.648;2023-06-05T00:48:52;13.80;;;5.40;;
25073;SDS011;13066;52.042;5.648;2023-06-05T00:51:20;9.05;;;5.03;;
25073;SDS011;13066;52.042;5.648;2023-06-05T00:53:48;9.23;;;4.63;;
25073;SDS011;13066;52.042;5.648;2023-06-05T00:56:17;9.10;;;4.80;;
25073;SDS011;13066;52.042;5.648;2023-06-05T00:58:47;13.75;;;5.25;;
25073;SDS011;13066;52.042;5.648;2023-06-05T01:01:17;11.50;;;5.22;;
25073;SDS011;13066;52.042;5.648;2023-06-05T01:03:47;10.82;;;4.95;;
25073;SDS011;13066;52.042;5.648;2023-06-05T01:06:15;7.95;;;4.97;;
25073;SDS011;13066;52.042;5.648;2023-06-05T01:08:44;11.80;;;5.03;;
25073;SDS011;13066;52.042;5.648;2023-06-05T01:11:13;7.07;;;4.95;;
25073;SDS011;13066;52.042;5.648;2023-06-05T01:13:46;6.65;;;4.53;;
25073;SDS011;13066;52.042;5.648;2023-06-05T01:16:21;6.78;;;4.90;;
25073;SDS011;13066;52.042;5.648;2023-06-05T01:18:58;10.30;;;4.80;;
25073;SDS011;13066;52.042;5.648;2023-06-05T01:21:29;5.97;;;4.60;;
25073;SDS011;13066;52.042;5.648;2023-06-05T01:23:59;10.73;;;5.10;;
25073;SDS011;13066;52.042;5.648;2023-06-05T01:26:30;12.70;;;5.20;;
25073;SDS011;13066;52.042;5.648;2023-06-05T01:29:02;10.43;;;5.13;;
25073;SDS011;13066;52.042;5.648;2023-06-05T01:31:33;9.43;;;5.10;;
25073;SDS011;13066;52.042;5.648;2023-06-05T01:34:04;9.07;;;5.05;;
25073;SDS011;13066;52.042;5.648;2023-06-05T01:36:36;10.95;;;5.57;;
25073;SDS011;13066;52.042;5.648;2023-06-05T01:39:06;9.52;;;5.18;;
25073;SDS011;13066;52.042;5.648;2023-06-05T01:41:34;7.22;;;5.32;;
25073;SDS011;13066;52.042;5.648;2023-06-05T01:44:03;10.02;;;5.55;;
25073;SDS011;13066;52.042;5.648;2023-06-05T01:46:32;11.32;;;6.10;;
25073;SDS011;13066;52.042;5.648;2023-06-05T01:49:02;12.52;;;5.68;;
25073;SDS011;13066;52.042;5.648;2023-06-05T01:51:32;13.27;;;5.88;;
25073;SDS011;13066;52.042;5.648;2023-06-05T01:54:00;9.50;;;5.63;;
25073;SDS011;13066;52.042;5.648;2023-06-05T01:56:29;14.13;;;5.45;;
25073;SDS011;13066;52.042;5.648;2023-06-05T01:58:59;10.23;;;5.28;;
25073;SDS011;13066;52.042;5.648;2023-06-05T02:01:33;9.32;;;5.55;;
25073;SDS011;13066;52.042;5.648;2023-06-05T02:04:02;11.23;;;5.70;;
25073;SDS011;13066;52.042;5.648;2023-06-05T02:06:33;12.98;;;5.50;;
25073;SDS011;13066;52.042;5.648;2023-06-05T02:09:08;12.93;;;5.80;;
25073;SDS011;13066;52.042;5.648;2023-06-05T02:11:38;16.52;;;6.28;;
25073;SDS011;13066;52.042;5.648;2023-06-05T02:14:09;8.55;;;5.68;;
25073;SDS011;13066;52.042;5.648;2023-06-05T02:16:40;10.75;;;6.05;;
25073;SDS011;13066;52.042;5.648;2023-06-05T02:19:08;10.68;;;5.90;;
25073;SDS011;13066;52.042;5.648;2023-06-05T02:21:37;8.52;;;5.90;;
25073;SDS011;13066;52.042;5.648;2023-06-05T02:24:05;14.50;;;6.30;;
25073;SDS011;13066;52.042;5.648;2023-06-05T02:26:34;9.40;;;6.03;;
25073;SDS011;13066;52.042;5.648;2023-06-05T02:29:03;13.73;;;6.10;;
25073;SDS011;13066;52.042;5.648;2023-06-05T02:31:31;12.70;;;6.65;;
25073;SDS011;13066;52.042;5.648;2023-06-05T02:34:00;18.23;;;6.70;;
25073;SDS011;13066;52.042;5.648;2023-06-05T02:36:29;13.15;;;6.30;;
25073;SDS011;13066;52.042;5.648;2023-06-05T02:38:59;10.73;;;6.25;;
25073;SDS011;13066;52.042;5.648;2023-06-05T02:41:28;10.65;;;6.32;;
25073;SDS011;13066;52.042;5.648;2023-06-05T02:43:56;10.80;;;6.25;;
25073;SDS011;13066;52.042;5.648;2023-06-05T02:46:27;12.50;;;6.88;;
25073;SDS011;13066;52.042;5.648;2023-06-05T02:48:55;11.43;;;6.75;;
25073;SDS011;13066;52.042;5.648;2023-06-05T02:51:24;13.13;;;7.43;;
25073;SDS011;13066;52.042;5.648;2023-06-05T02:53:53;13.23;;;7.03;;
25073;SDS011;13066;52.042;5.648;2023-06-05T02:56:21;13.77;;;6.68;;
25073;SDS011;13066;52.042;5.648;2023-06-05T02:58:53;9.98;;;6.85;;
25073;SDS011;13066;52.042;5.648;2023-06-05T03:01:24;11.15;;;6.97;;
25073;SDS011;13066;52.042;5.648;2023-06-05T03:04:06;11.35;;;7.13;;
25073;SDS011;13066;52.042;5.648;2023-06-05T03:06:36;15.23;;;7.20;;
25073;SDS011;13066;52.042;5.648;2023-06-05T03:09:07;16.08;;;7.28;;
25073;SDS011;13066;52.042;5.648;2023-06-05T03:11:36;14.45;;;7.90;;
25073;SDS011;13066;52.042;5.648;2023-06-05T03:14:04;13.85;;;7.75;;
25073;SDS011;13066;52.042;5.648;2023-06-05T03:16:34;13.52;;;7.60;;
25073;SDS011;13066;52.042;5.648;2023-06-05T03:19:10;12.63;;;7.68;;
25073;SDS011;13066;52.042;5.648;2023-06-05T03:21:41;12.82;;;7.57;;
25073;SDS011;13066;52.042;5.648;2023-06-05T03:24:11;13.00;;;7.88;;
25073;SDS011;13066;52.042;5.648;2023-06-05T03:26:44;14.05;;;8.30;;
25073;SDS011;13066;52.042;5.648;2023-06-05T03:29:12;10.68;;;7.80;;
25073;SDS011;13066;52.042;5.648;2023-06-05T03:31:41;12.75;;;7.80;;
25073;SDS011;13066;52.042;5.648;2023-06-05T03:34:12;13.65;;;7.90;;
25073;SDS011;13066;52.042;5.648;2023-06-05T03:36:40;12.85;;;7.88;;
25073;SDS011;13066;52.042;5.648;2023-06-05T03:39:10;14.40;;;8.55;;
25073;SDS011;13066;52.042;5.648;2023-06-05T03:41:40;11.65;;;8.27;;
25073;SDS011;13066;52.042;5.648;2023-06-05T03:44:08;14.20;;;8.10;;
25073;SDS011;13066;52.042;5.648;2023-06-05T03:46:36;15.93;;;8.10;;
25073;SDS011;13066;52.042;5.648;2023-06-05T03:49:05;15.45;;;8.73;;
25073;SDS011;13066;52.042;5.648;2023-06-05T03:51:37;15.73;;;9.15;;
25073;SDS011;13066;52.042;5.648;2023-06-05T03:54:06;12.63;;;9.10;;
25073;SDS011;13066;52.042;5.648;2023-06-05T03:56:35;16.85;;;8.63;;
25073;SDS011;13066;52.042;5.648;2023-06-05T03:59:11;16.73;;;10.15;;
25073;SDS011;13066;52.042;5.648;2023-06-05T04:01:50;16.30;;;9.55;;
25073;SDS011;13066;52.042;5.648;2023-06-05T04:04:18;14.93;;;9.25;;
25073;SDS011;13066;52.042;5.648;2023-06-05T04:06:48;15.30;;;8.95;;
25073;SDS011;13066;52.042;5.648;2023-06-05T04:09:16;15.60;;;9.73;;
25073;SDS011;13066;52.042;5.648;2023-06-05T04:11:45;12.63;;;8.88;;
25073;SDS011;13066;52.042;5.648;2023-06-05T04:14:14;16.17;;;9.80;;
25073;SDS011;13066;52.042;5.648;2023-06-05T04:16:42;14.88;;;8.80;;
25073;SDS011;13066;52.042;5.648;2023-06-05T04:19:15;19.25;;;9.60;;
25073;SDS011;13066;52.042;5.648;2023-06-05T04:21:47;15.45;;;9.20;;
25073;SDS011;13066;52.042;5.648;2023-06-05T04:24:16;16.85;;;9.18;;
25073;SDS011;13066;52.042;5.648;2023-06-05T04:26:44;24.70;;;10.15;;
25073;SDS011;13066;52.042;5.648;2023-06-05T04:29:13;12.52;;;9.18;;
25073;SDS011;13066;52.042;5.648;2023-06-05T04:31:43;14.32;;;9.02;;
25073;SDS011;13066;52.042;5.648;2023-06-05T04:34:14;14.90;;;9.00;;
25073;SDS011;13066;52.042;5.648;2023-06-05T04:36:45;14.85;;;8.45;;
25073;SDS011;13066;52.042;5.648;2023-06-05T04:39:14;14.82;;;8.63;;
25073;SDS011;13066;52.042;5.648;2023-06-05T04:41:44;15.77;;;8.90;;
25073;SDS011;13066;52.042;5.648;2023-06-05T04:44:30;15.68;;;9.57;;
25073;SDS011;13066;52.042;5.648;2023-06-05T04:46:58;15.73;;;9.15;;
25073;SDS011;13066;52.042;5.648;2023-06-05T04:49:27;16.50;;;9.20;;
25073;SDS011;13066;52.042;5.648;2023-06-05T04:51:55;20.33;;;9.70;;
25073;SDS011;13066;52.042;5.648;2023-06-05T04:54:27;13.52;;;9.10;;
25073;SDS011;13066;52.042;5.648;2023-06-05T04:56:57;16.33;;;8.85;;
25073;SDS011;13066;52.042;5.648;2023-06-05T04:59:28;14.68;;;9.05;;
25073;SDS011;13066;52.042;5.648;2023-06-05T05:02:00;15.82;;;9.65;;
25073;SDS011;13066;52.042;5.648;2023-06-05T05:04:29;21.50;;;9.32;;
25073;SDS011;13066;52.042;5.648;2023-06-05T05:06:57;19.65;;;10.00;;
25073;SDS011;13066;52.042;5.648;2023-06-05T05:09:29;15.00;;;9.20;;
25073;SDS011;13066;52.042;5.648;2023-06-05T05:12:01;13.45;;;9.10;;
25073;SDS011;13066;52.042;5.648;2023-06-05T05:14:29;18.98;;;9.20;;
25073;SDS011;13066;52.042;5.648;2023-06-05T05:16:57;14.88;;;8.27;;
25073;SDS011;13066;52.042;5.648;2023-06-05T05:19:26;16.63;;;9.00;;
25073;SDS011;13066;52.042;5.648;2023-06-05T05:21:57;14.52;;;9.57;;
25073;SDS011;13066;52.042;5.648;2023-06-05T05:24:25;17.98;;;9.07;;
25073;SDS011;13066;52.042;5.648;2023-06-05T05:26:54;24.73;;;9.40;;
25073;SDS011;13066;52.042;5.648;2023-06-05T05:29:22;20.52;;;9.80;;
25073;SDS011;13066;52.042;5.648;2023-06-05T05:31:50;20.85;;;9.32;;
25073;SDS011;13066;52.042;5.648;2023-06-05T05:34:20;13.23;;;8.13;;
25073;SDS011;13066;52.042;5.648;2023-06-05T05:36:48;16.33;;;8.85;;
25073;SDS011;13066;52.042;5.648;2023-06-05T05:39:17;20.85;;;9.00;;
25073;SDS011;13066;52.042;5.648;2023-06-05T05:41:45;16.40;;;8.88;;
25073;SDS011;13066;52.042;5.648;2023-06-05T05:44:15;17.50;;;8.50;;
25073;SDS011;13066;52.042;5.648;2023-06-05T05:46:44;18.15;;;8.00;;
25073;SDS011;13066;52.042;5.648;2023-06-05T05:49:13;14.30;;;8.68;;
25073;SDS011;13066;52.042;5.648;2023-06-05T05:51:41;16.05;;;8.82;;
25073;SDS011;13066;52.042;5.648;2023-06-05T05:54:09;18.65;;;8.20;;
25073;SDS011;13066;52.042;5.648;2023-06-05T05:56:37;12.73;;;8.52;;
25073;SDS011;13066;52.042;5.648;2023-06-05T05:59:05;15.75;;;8.48;;
25073;SDS011;13066;52.042;5.648;2023-06-05T06:01:34;13.68;;;7.47;;
25073;SDS011;13066;52.042;5.648;2023-06-05T06:04:03;16.15;;;8.05;;
25073;SDS011;13066;52.042;5.648;2023-06-05T06:06:34;14.90;;;7.68;;
25073;SDS011;13066;52.042;5.648;2023-06-05T06:09:04;15.20;;;7.57;;
25073;SDS011;13066;52.042;5.648;2023-06-05T06:11:35;15.30;;;7.72;;
25073;SDS011;13066;52.042;5.648;2023-06-05T06:14:04;16.52;;;7.85;;
25073;SDS011;13066;52.042;5.648;2023-06-05T06:16:32;10.23;;;7.25;;
25073;SDS011;13066;52.042;5.648;2023-06-05T06:19:01;13.50;;;7.20;;
25073;SDS011;13066;52.042;5.648;2023-06-05T06:21:30;12.95;;;7.78;;
25073;SDS011;13066;52.042;5.648;2023-06-05T06:23:59;10.27;;;6.65;;
25073;SDS011;13066;52.042;5.648;2023-06-05T06:26:28;15.85;;;7.40;;
25073;SDS011;13066;52.042;5.648;2023-06-05T06:28:57;14.07;;;7.53;;
25073;SDS011;13066;52.042;5.648;2023-06-05T06:31:26;10.73;;;7.28;;
25073;SDS011;13066;52.042;5.648;2023-06-05T06:33:55;13.13;;;6.75;;
25073;SDS011;13066;52.042;5.648;2023-06-05T06:36:24;15.30;;;7.43;;
25073;SDS011;13066;52.042;5.648;2023-06-05T06:38:53;11.65;;;7.18;;
25073;SDS011;13066;52.042;5.648;2023-06-05T06:41:22;19.67;;;7.43;;
25073;SDS011;13066;52.042;5.648;2023-06-05T06:43:52;15.52;;;7.15;;
25073;SDS011;13066;52.042;5.648;2023-06-05T06:46:20;14.52;;;6.80;;
25073;SDS011;13066;52.042;5.648;2023-06-05T06:48:48;17.33;;;7.05;;
25073;SDS011;13066;52.042;5.648;2023-06-05T06:51:17;14.63;;;6.78;;
25073;SDS011;13066;52.042;5.648;2023-06-05T06:53:46;11.73;;;6.32;;
25073;SDS011;13066;52.042;5.648;2023-06-05T06:56:15;11.52;;;6.85;;
25073;SDS011;13066;52.042;5.648;2023-06-05T06:58:44;24.67;;;6.90;;
25073;SDS011;13066;52.042;5.648;2023-06-05T07:01:13;12.00;;;5.88;;
25073;SDS011;13066;52.042;5.648;2023-06-05T07:03:42;14.27;;;5.95;;
25073;SDS011;13066;52.042;5.648;2023-06-05T07:06:10;14.57;;;6.47;;
25073;SDS011;13066;52.042;5.648;2023-06-05T07:08:41;11.60;;;6.47;;
25073;SDS011;13066;52.042;5.648;2023-06-05T07:11:11;14.18;;;6.38;;
25073;SDS011;13066;52.042;5.648;2023-06-05T07:13:39;11.05;;;5.63;;
25073;SDS011;13066;52.042;5.648;2023-06-05T07:16:07;12.18;;;6.22;;
25073;SDS011;13066;52.042;5.648;2023-06-05T07:18:35;15.15;;;6.18;;
25073;SDS011;13066;52.042;5.648;2023-06-05T07:21:04;13.88;;;6.35;;
25073;SDS011;13066;52.042;5.648;2023-06-05T07:23:32;11.45;;;6.57;;
25073;SDS011;13066;52.042;5.648;2023-06-05T07:26:01;13.00;;;5.75;;
25073;SDS011;13066;52.042;5.648;2023-06-05T07:28:31;11.05;;;5.57;;
25073;SDS011;13066;52.042;5.648;2023-06-05T07:30:59;12.68;;;6.28;;
25073;SDS011;13066;52.042;5.648;2023-06-05T07:33:29;9.40;;;5.85;;
25073;SDS011;13066;52.042;5.648;2023-06-05T07:35:58;10.60;;;5.53;;
25073;SDS011;13066;52.042;5.648;2023-06-05T07:38:26;11.38;;;5.45;;
25073;SDS011;13066;52.042;5.648;2023-06-05T07:40:56;13.18;;;5.45;;
25073;SDS011;13066;52.042;5.648;2023-06-05T07:43:25;9.05;;;4.90;;
25073;SDS011;13066;52.042;5.648;2023-06-05T07:45:54;7.75;;;4.80;;
25073;SDS011;13066;52.042;5.648;2023-06-05T07:48:22;12.82;;;5.07;;
25073;SDS011;13066;52.042;5.648;2023-06-05T07:50:50;15.35;;;5.45;;
25073;SDS011;13066;52.042;5.648;2023-06-05T07:53:18;9.13;;;5.20;;
25073;SDS011;13066;52.042;5.648;2023-06-05T07:55:48;9.27;;;4.68;;
25073;SDS011;13066;52.042;5.648;2023-06-05T07:58:18;9.38;;;4.88;;
25073;SDS011;13066;52.042;5.648;2023-06-05T08:00:47;11.93;;;4.65;;
25073;SDS011;13066;52.042;5.648;2023-06-05T08:03:16;8.52;;;5.05;;
25073;SDS011;13066;52.042;5.648;2023-06-05T08:05:47;11.82;;;4.70;;
25073;SDS011;13066;52.042;5.648;2023-06-05T08:08:16;7.72;;;5.00;;
25073;SDS011;13066;52.042;5.648;2023-06-05T08:10:44;7.25;;;4.47;;
25073;SDS011;13066;52.042;5.648;2023-06-05T08:13:14;9.50;;;4.65;;
25073;SDS011;13066;52.042;5.648;2023-06-05T08:15:43;8.63;;;4.57;;
25073;SDS011;13066;52.042;5.648;2023-06-05T08:18:10;11.23;;;4.32;;
25073;SDS011;13066;52.042;5.648;2023-06-05T08:20:40;12.52;;;5.28;;
25073;SDS011;13066;52.042;5.648;2023-06-05T08:23:08;11.43;;;4.57;;
25073;SDS011;13066;52.042;5.648;2023-06-05T08:25:36;13.68;;;4.63;;
25073;SDS011;13066;52.042;5.648;2023-06-05T08:28:04;9.55;;;4.70;;
25073;SDS011;13066;52.042;5.648;2023-06-05T08:30:32;9.85;;;4.38;;
25073;SDS011;13066;52.042;5.648;2023-06-05T08:33:01;6.38;;;4.13;;
25073;SDS011;13066;52.042;5.648;2023-06-05T08:35:29;9.63;;;4.38;;
25073;SDS011;13066;52.042;5.648;2023-06-05T08:37:59;13.98;;;4.78;;
25073;SDS011;13066;52.042;5.648;2023-06-05T08:40:28;8.68;;;4.47;;
25073;SDS011;13066;52.042;5.648;2023-06-05T08:42:59;9.23;;;4.68;;
25073;SDS011;13066;52.042;5.648;2023-06-05T08:45:27;8.13;;;4.47;;
25073;SDS011;13066;52.042;5.648;2023-06-05T08:47:55;7.85;;;4.70;;
25073;SDS011;13066;52.042;5.648;2023-06-05T08:50:28;7.05;;;4.07;;
25073;SDS011;13066;52.042;5.648;2023-06-05T08:52:59;9.25;;;4.55;;
25073;SDS011;13066;52.042;5.648;2023-06-05T08:55:27;9.07;;;4.40;;
25073;SDS011;13066;52.042;5.648;2023-06-05T08:57:55;6.13;;;3.75;;
25073;SDS011;13066;52.042;5.648;2023-06-05T09:00:24;10.40;;;4.25;;
25073;SDS011;13066;52.042;5.648;2023-06-05T09:02:52;11.20;;;4.47;;
25073;SDS011;13066;52.042;5.648;2023-06-05T09:05:21;5.72;;;4.00;;
25073;SDS011;13066;52.042;5.648;2023-06-05T09:07:49;6.63;;;4.05;;
25073;SDS011;13066;52.042;5.648;2023-06-05T09:10:22;8.00;;;4.18;;
25073;SDS011;13066;52.042;5.648;2023-06-05T09:12:52;9.45;;;4.63;;
25073;SDS011;13066;52.042;5.648;2023-06-05T09:15:21;8.68;;;4.60;;
25073;SDS011;13066;52.042;5.648;2023-06-05T09:20:38;9.05;;;4.28;;
25073;SDS011;13066;52.042;5.648;2023-06-05T09:23:23;6.63;;;3.88;;
25073;SDS011;13066;52.042;5.648;2023-06-05T09:25:56;7.93;;;4.15;;
25073;SDS011;13066;52.042;5.648;2023-06-05T09:28:25;7.80;;;3.85;;
25073;SDS011;13066;52.042;5.648;2023-06-05T09:30:55;10.07;;;4.10;;
25073;SDS011;13066;52.042;5.648;2023-06-05T09:33:25;9.15;;;4.10;;
25073;SDS011;13066;52.042;5.648;2023-06-05T09:36:01;8.32;;;3.72;;
25073;SDS011;13066;52.042;5.648;2023-06-05T09:38:31;12.05;;;4.60;;
25073;SDS011;13066;52.042;5.648;2023-06-05T09:41:07;8.55;;;3.72;;
25073;SDS011;13066;52.042;5.648;2023-06-05T09:43:36;7.07;;;4.47;;
25073;SDS011;13066;52.042;5.648;2023-06-05T09:46:06;11.20;;;4.35;;
25073;SDS011;13066;52.042;5.648;2023-06-05T09:48:36;7.13;;;3.97;;
25073;SDS011;13066;52.042;5.648;2023-06-05T09:51:08;8.27;;;5.82;;
25073;SDS011;13066;52.042;5.648;2023-06-05T09:53:43;11.10;;;4.60;;
25073;SDS011;13066;52.042;5.648;2023-06-05T09:56:14;11.45;;;5.18;;
25073;SDS011;13066;52.042;5.648;2023-06-05T09:58:43;9.52;;;5.38;;
25073;SDS011;13066;52.042;5.648;2023-06-05T10:01:13;6.65;;;4.43;;
25073;SDS011;13066;52.042;5.648;2023-06-05T10:03:44;11.38;;;5.15;;
25073;SDS011;13066;52.042;5.648;2023-06-05T10:06:15;7.93;;;4.72;;
25073;SDS011;13066;52.042;5.648;2023-06-05T10:08:49;8.35;;;4.47;;
25073;SDS011;13066;52.042;5.648;2023-06-05T10:11:24;6.15;;;4.35;;
25073;SDS011;13066;52.042;5.648;2023-06-05T10:13:56;11.07;;;4.97;;
25073;SDS011;13066;52.042;5.648;2023-06-05T10:16:27;10.73;;;4.68;;
25073;SDS011;13066;52.042;5.648;2023-06-05T10:18:56;7.32;;;4.47;;
25073;SDS011;13066;52.042;5.648;2023-06-05T10:21:25;9.20;;;5.07;;
25073;SDS011;13066;52.042;5.648;2023-06-05T10:23:56;5.63;;;3.95;;
25073;SDS011;13066;52.042;5.648;2023-06-05T10:29:08;7.10;;;4.00;;
25073;SDS011;13066;52.042;5.648;2023-06-05T10:31:43;9.80;;;4.85;;
25073;SDS011;13066;52.042;5.648;2023-06-05T10:34:17;7.18;;;4.85;;
25073;SDS011;13066;52.042;5.648;2023-06-05T10:37:15;7.63;;;4.55;;
25073;SDS011;13066;52.042;5.648;2023-06-05T10:39:53;12.40;;;4.50;;
25073;SDS011;13066;52.042;5.648;2023-06-05T10:42:25;8.27;;;4.68;;
25073;SDS011;13066;52.042;5.648;2023-06-05T10:44:54;8.18;;;4.53;;
25073;SDS011;13066;52.042;5.648;2023-06-05T10:50:20;7.95;;;4.95;;
25073;SDS011;13066;52.042;5.648;2023-06-05T10:52:53;11.55;;;5.38;;
25073;SDS011;13066;52.042;5.648;2023-06-05T10:55:25;10.45;;;4.65;;
25073;SDS011;13066;52.042;5.648;2023-06-05T10:58:08;8.10;;;5.18;;
25073;SDS011;13066;52.042;5.648;2023-06-05T11:00:37;8.15;;;4.47;;
25073;SDS011;13066;52.042;5.648;2023-06-05T11:03:05;8.88;;;4.78;;
25073;SDS011;13066;52.042;5.648;2023-06-05T11:05:34;10.18;;;4.40;;
25073;SDS011;13066;52.042;5.648;2023-06-05T11:08:12;6.97;;;4.18;;
25073;SDS011;13066;52.042;5.648;2023-06-05T11:11:03;10.52;;;4.47;;
25073;SDS011;13066;52.042;5.648;2023-06-05T11:13:52;8.60;;;4.00;;
25073;SDS011;13066;52.042;5.648;2023-06-05T11:16:28;7.78;;;4.35;;
25073;SDS011;13066;52.042;5.648;2023-06-05T11:22:02;7.22;;;4.10;;
25073;SDS011;13066;52.042;5.648;2023-06-05T11:24:35;7.05;;;4.32;;
25073;SDS011;13066;52.042;5.648;2023-06-05T11:27:04;9.32;;;3.92;;
25073;SDS011;13066;52.042;5.648;2023-06-05T11:29:33;7.03;;;4.30;;
25073;SDS011;13066;52.042;5.648;2023-06-05T11:32:10;10.05;;;5.00;;
25073;SDS011;13066;52.042;5.648;2023-06-05T11:34:39;8.98;;;4.93;;
25073;SDS011;13066;52.042;5.648;2023-06-05T11:37:15;7.07;;;4.28;;
25073;SDS011;13066;52.042;5.648;2023-06-05T11:39:44;11.35;;;5.13;;
25073;SDS011;13066;52.042;5.648;2023-06-05T11:42:14;6.47;;;3.70;;
25073;SDS011;13066;52.042;5.648;2023-06-05T11:44:50;8.50;;;4.63;;
25073;SDS011;13066;52.042;5.648;2023-06-05T11:47:24;5.97;;;4.30;;
25073;SDS011;13066;52.042;5.648;2023-06-05T11:49:53;11.98;;;4.80;;
25073;SDS011;13066;52.042;5.648;2023-06-05T11:52:21;7.78;;;4.32;;
25073;SDS011;13066;52.042;5.648;2023-06-05T11:54:49;11.48;;;4.93;;
25073;SDS011;13066;52.042;5.648;2023-06-05T11:57:41;7.00;;;3.90;;
25073;SDS011;13066;52.042;5.648;2023-06-05T12:00:23;12.07;;;4.60;;
25073;SDS011;13066;52.042;5.648;2023-06-05T12:02:53;7.43;;;4.28;;
25073;SDS011;13066;52.042;5.648;2023-06-05T12:05:21;11.40;;;4.55;;
25073;SDS011;13066;52.042;5.648;2023-06-05T12:07:50;4.43;;;3.90;;
25073;SDS011;13066;52.042;5.648;2023-06-05T12:10:18;6.40;;;3.55;;
25073;SDS011;13066;52.042;5.648;2023-06-05T12:12:50;7.82;;;4.13;;
25073;SDS011;13066;52.042;5.648;2023-06-05T12:15:18;7.63;;;3.90;;
25073;SDS011;13066;52.042;5.648;2023-06-05T12:17:51;7.80;;;3.88;;
25073;SDS011;13066;52.042;5.648;2023-06-05T12:20:21;8.25;;;3.75;;
25073;SDS011;13066;52.042;5.648;2023-06-05T12:22:49;8.40;;;3.78;;
25073;SDS011;13066;52.042;5.648;2023-06-05T12:25:17;8.55;;;3.47;;
25073;SDS011;13066;52.042;5.648;2023-06-05T12:27:47;6.80;;;3.38;;
25073;SDS011;13066;52.042;5.648;2023-06-05T12:30:15;11.15;;;3.85;;
25073;SDS011;13066;52.042;5.648;2023-06-05T12:32:43;4.68;;;3.38;;
25073;SDS011;13066;52.042;5.648;2023-06-05T12:35:20;6.13;;;3.15;;
25073;SDS011;13066;52.042;5.648;2023-06-05T12:37:49;7.38;;;3.60;;
25073;SDS011;13066;52.042;5.648;2023-06-05T12:40:18;4.13;;;3.17;;
25073;SDS011;13066;52.042;5.648;2023-06-05T12:43:03;8.38;;;3.00;;
25073;SDS011;13066;52.042;5.648;2023-06-05T12:45:31;9.25;;;3.53;;
25073;SDS011;13066;52.042;5.648;2023-06-05T12:48:00;5.78;;;3.33;;
25073;SDS011;13066;52.042;5.648;2023-06-05T12:50:29;3.65;;;3.17;;
25073;SDS011;13066;52.042;5.648;2023-06-05T12:52:58;7.13;;;3.33;;
25073;SDS011;13066;52.042;5.648;2023-06-05T12:55:28;7.50;;;3.38;;
25073;SDS011;13066;52.042;5.648;2023-06-05T12:57:56;4.93;;;3.40;;
25073;SDS011;13066;52.042;5.648;2023-06-05T13:00:28;7.47;;;3.55;;
25073;SDS011;13066;52.042;5.648;2023-06-05T13:02:55;9.65;;;3.75;;
25073;SDS011;13066;52.042;5.648;2023-06-05T13:05:24;7.43;;;3.22;;
25073;SDS011;13066;52.042;5.648;2023-06-05T13:07:54;6.63;;;3.00;;
25073;SDS011;13066;52.042;5.648;2023-06-05T13:10:22;6.43;;;3.20;;
25073;SDS011;13066;52.042;5.648;2023-06-05T13:12:53;4.03;;;3.00;;
25073;SDS011;13066;52.042;5.648;2023-06-05T13:15:21;11.40;;;3.70;;
25073;SDS011;13066;52.042;5.648;2023-06-05T13:17:49;6.25;;;3.00;;
25073;SDS011;13066;52.042;5.648;2023-06-05T13:20:17;7.75;;;3.03;;
25073;SDS011;13066;52.042;5.648;2023-06-05T13:22:49;5.22;;;2.80;;
25073;SDS011;13066;52.042;5.648;2023-06-05T13:25:18;5.00;;;2.97;;
25073;SDS011;13066;52.042;5.648;2023-06-05T13:27:47;5.05;;;2.92;;
25073;SDS011;13066;52.042;5.648;2023-06-05T13:30:15;6.57;;;2.92;;
25073;SDS011;13066;52.042;5.648;2023-06-05T13:32:44;3.83;;;2.97;;
25073;SDS011;13066;52.042;5.648;2023-06-05T13:35:12;7.20;;;3.85;;
25073;SDS011;13066;52.042;5.648;2023-06-05T13:37:40;6.38;;;3.03;;
25073;SDS011;13066;52.042;5.648;2023-06-05T13:40:09;9.63;;;3.13;;
25073;SDS011;13066;52.042;5.648;2023-06-05T13:42:39;5.07;;;2.67;;
25073;SDS011;13066;52.042;5.648;2023-06-05T13:45:08;9.80;;;2.80;;
25073;SDS011;13066;52.042;5.648;2023-06-05T13:47:37;3.60;;;2.58;;
25073;SDS011;13066;52.042;5.648;2023-06-05T13:50:08;5.72;;;3.30;;
25073;SDS011;13066;52.042;5.648;2023-06-05T13:52:37;5.68;;;2.83;;
25073;SDS011;13066;52.042;5.648;2023-06-05T13:55:05;4.60;;;2.67;;
25073;SDS011;13066;52.042;5.648;2023-06-05T13:57:34;6.10;;;2.83;;
25073;SDS011;13066;52.042;5.648;2023-06-05T14:00:04;5.07;;;2.88;;
25073;SDS011;13066;52.042;5.648;2023-06-05T14:02:35;3.58;;;2.78;;
25073;SDS011;13066;52.042;5.648;2023-06-05T14:05:03;11.35;;;2.63;;
25073;SDS011;13066;52.042;5.648;2023-06-05T14:07:33;9.65;;;2.90;;
25073;SDS011;13066;52.042;5.648;2023-06-05T14:10:14;7.80;;;2.92;;
25073;SDS011;13066;52.042;5.648;2023-06-05T14:12:43;10.27;;;2.80;;
25073;SDS011;13066;52.042;5.648;2023-06-05T14:15:15;5.22;;;2.50;;
25073;SDS011;13066;52.042;5.648;2023-06-05T14:17:45;5.00;;;2.35;;
25073;SDS011;13066;52.042;5.648;2023-06-05T14:20:14;5.85;;;2.50;;
25073;SDS011;13066;52.042;5.648;2023-06-05T14:22:42;5.22;;;2.53;;
25073;SDS011;13066;52.042;5.648;2023-06-05T14:25:10;4.55;;;2.80;;
25073;SDS011;13066;52.042;5.648;2023-06-05T14:27:38;6.85;;;3.20;;
25073;SDS011;13066;52.042;5.648;2023-06-05T14:30:07;11.13;;;4.70;;
25073;SDS011;13066;52.042;5.648;2023-06-05T14:32:37;6.57;;;3.60;;
25073;SDS011;13066;52.042;5.648;2023-06-05T14:35:05;10.82;;;3.42;;
25073;SDS011;13066;52.042;5.648;2023-06-05T14:37:34;5.82;;;3.25;;
25073;SDS011;13066;52.042;5.648;2023-06-05T14:40:02;14.90;;;5.43;;
25073;SDS011;13066;52.042;5.648;2023-06-05T14:42:31;8.75;;;3.10;;
25073;SDS011;13066;52.042;5.648;2023-06-05T14:44:59;7.40;;;2.67;;
25073;SDS011;13066;52.042;5.648;2023-06-05T14:47:27;7.20;;;3.83;;
25073;SDS011;13066;52.042;5.648;2023-06-05T14:49:57;8.40;;;4.72;;
25073;SDS011;13066;52.042;5.648;2023-06-05T14:52:25;6.30;;;3.60;;
25073;SDS011;13066;52.042;5.648;2023-06-05T14:54:54;6.53;;;3.75;;
25073;SDS011;13066;52.042;5.648;2023-06-05T14:57:29;10.82;;;5.13;;
25073;SDS011;13066;52.042;5.648;2023-06-05T14:59:57;12.48;;;4.50;;
25073;SDS011;13066;52.042;5.648;2023-06-05T15:02:25;4.80;;;3.60;;
25073;SDS011;13066;52.042;5.648;2023-06-05T15:04:53;7.82;;;4.60;;
25073;SDS011;13066;52.042;5.648;2023-06-05T15:07:34;7.30;;;3.88;;
25073;SDS011;13066;52.042;5.648;2023-06-05T15:10:02;7.28;;;3.95;;